Manbij, Syria
Current Conditions -  °F | °C
As of 2:50 PM on Monday 24 Nov 2014 (Local Time) from LTAJ Reporting Station
Scattered Clouds Scattered Clouds  
Wind Chill: 11°   Ceiling: Unl
Heat Index: 11°   Visibility: 6mi
Dew Point:   Wind: 10mph
Humidity: 50%   Direction: 40°NE
Pressure: 29.97"   Gusts: NA
Location:  36.54°N, 37.96°E
Report Text: LTAJ 241150Z 04009KT 9999 SCT040 11/01 Q1015 NOSIG
Loading
Personal Weather Stations






























Interactive Weather Map New forecast layout! Learn more

10-Day Weather Forecast

Advertisements
Track Severe Weather on mobile